createdAt,value
2022-09-01T00:01:42.223Z,6.68
2022-09-01T00:04:12.830Z,6.05
2022-09-01T00:06:40.995Z,6.43
2022-09-01T00:09:11.551Z,5.80
2022-09-01T00:11:39.299Z,6.32
2022-09-01T00:14:10.669Z,5.32
2022-09-01T00:16:55.256Z,5.80
2022-09-01T00:19:23.806Z,5.40
2022-09-01T00:21:50.461Z,6.03
2022-09-01T00:24:18.924Z,6.00
2022-09-01T00:26:46.937Z,5.53
2022-09-01T00:29:14.045Z,5.72
2022-09-01T00:31:41.496Z,5.95
2022-09-01T00:34:08.441Z,6.28
2022-09-01T00:36:35.082Z,6.32
2022-09-01T00:39:02.663Z,6.07
2022-09-01T00:41:31.971Z,5.88
2022-09-01T00:44:02.854Z,5.95
2022-09-01T00:46:33.328Z,6.65
2022-09-01T00:49:05.086Z,5.55
2022-09-01T00:51:34.772Z,5.90
2022-09-01T00:54:03.013Z,6.05
2022-09-01T00:56:31.988Z,5.65
2022-09-01T00:59:00.183Z,5.93
2022-09-01T01:01:27.056Z,5.70
2022-09-01T01:03:53.765Z,5.82
2022-09-01T01:06:26.843Z,5.43
2022-09-01T01:09:01.404Z,5.78
2022-09-01T01:11:32.371Z,6.03
2022-09-01T01:14:05.871Z,5.53
2022-09-01T01:16:32.533Z,5.35
2022-09-01T01:18:59.459Z,5.60
2022-09-01T01:21:49.780Z,5.93
2022-09-01T01:24:28.169Z,6.25
2022-09-01T01:26:59.759Z,5.43
2022-09-01T01:29:31.511Z,5.75
2022-09-01T01:31:58.379Z,5.32
2022-09-01T01:34:25.044Z,5.93
2022-09-01T01:36:52.340Z,5.82
2022-09-01T01:39:23.031Z,5.50
2022-09-01T01:41:51.104Z,6.00
2022-09-01T01:44:22.522Z,6.18
2022-09-01T01:46:52.713Z,5.80
2022-09-01T01:49:24.471Z,6.35
2022-09-01T01:51:57.233Z,5.80
2022-09-01T01:54:27.014Z,6.70
2022-09-01T01:56:54.031Z,5.78
2022-09-01T01:59:20.664Z,6.57
2022-09-01T02:01:49.286Z,7.35
2022-09-01T02:04:17.070Z,7.10
2022-09-01T02:06:46.258Z,7.13
2022-09-01T02:09:14.726Z,6.60
2022-09-01T02:11:41.344Z,6.45
2022-09-01T02:14:08.987Z,7.10
2022-09-01T02:16:36.630Z,6.63
2022-09-01T02:19:07.226Z,7.05
2022-09-01T02:21:34.094Z,7.70
2022-09-01T02:24:04.205Z,7.05
2022-09-01T02:26:35.042Z,6.57
2022-09-01T02:29:04.828Z,7.20
2022-09-01T02:31:36.016Z,7.47
2022-09-01T02:34:04.264Z,7.13
2022-09-01T02:36:35.057Z,7.35
2022-09-01T02:39:01.707Z,7.47
2022-09-01T02:41:29.319Z,7.20
2022-09-01T02:43:56.962Z,7.50
2022-09-01T02:46:24.654Z,6.97
2022-09-01T02:48:52.747Z,7.43
2022-09-01T02:51:22.589Z,7.35
2022-09-01T02:53:51.258Z,6.80
2022-09-01T02:56:21.351Z,6.25
2022-09-01T02:58:51.815Z,6.68
2022-09-01T03:01:24.849Z,7.18
2022-09-01T03:03:54.550Z,6.70
2022-09-01T03:06:24.535Z,6.10
2022-09-01T03:08:54.560Z,5.30
2022-09-01T03:11:23.830Z,5.30
2022-09-01T03:13:50.807Z,5.43
2022-09-01T03:16:17.450Z,5.68
2022-09-01T03:18:44.084Z,5.18
2022-09-01T03:21:16.162Z,5.28
2022-09-01T03:23:44.720Z,6.03
2022-09-01T03:26:11.527Z,5.95
2022-09-01T03:28:38.892Z,5.45
2022-09-01T03:31:06.118Z,6.07
2022-09-01T03:33:34.391Z,6.75
2022-09-01T03:36:01.072Z,6.85
2022-09-01T03:38:28.725Z,5.85
2022-09-01T03:41:00.915Z,6.45
2022-09-01T03:43:34.458Z,6.43
2022-09-01T03:46:03.056Z,6.70
2022-09-01T03:48:31.749Z,5.95
2022-09-01T03:51:03.464Z,5.97
2022-09-01T03:53:35.094Z,6.80
2022-09-01T03:56:04.208Z,6.05
2022-09-01T03:58:31.788Z,6.07
2022-09-01T04:01:02.979Z,6.53
2022-09-01T04:03:34.614Z,5.85
2022-09-01T04:06:03.156Z,6.25
2022-09-01T04:08:32.999Z,6.10
2022-09-01T04:11:05.274Z,5.72
2022-09-01T04:13:36.323Z,5.50
2022-09-01T04:16:09.679Z,6.05
2022-09-01T04:18:36.887Z,5.57
2022-09-01T04:21:06.081Z,5.65
2022-09-01T04:23:35.104Z,5.72
2022-09-01T04:26:09.118Z,5.18
2022-09-01T04:28:40.236Z,5.80
2022-09-01T04:31:10.118Z,6.70
2022-09-01T04:33:40.059Z,5.47
2022-09-01T04:36:19.680Z,5.40
2022-09-01T04:38:48.238Z,6.32
2022-09-01T04:41:17.641Z,5.63
2022-09-01T04:43:47.465Z,5.70
2022-09-01T04:46:16.389Z,6.75
2022-09-01T04:48:46.039Z,6.63
2022-09-01T04:51:15.413Z,6.82
2022-09-01T04:53:48.868Z,6.32
2022-09-01T04:56:19.692Z,6.10
2022-09-01T04:58:47.963Z,6.15
2022-09-01T05:01:18.700Z,6.95
2022-09-01T05:03:45.856Z,6.50
2022-09-01T05:06:17.712Z,6.80
2022-09-01T05:08:46.199Z,7.05
2022-09-01T05:11:17.924Z,6.13
2022-09-01T05:13:48.413Z,6.55
2022-09-01T05:16:22.747Z,6.85
2022-09-01T05:18:54.261Z,6.50
2022-09-01T05:21:24.624Z,6.40
2022-09-01T05:23:51.856Z,6.90
2022-09-01T05:26:23.915Z,7.30
2022-09-01T05:28:54.053Z,7.32
2022-09-01T05:31:23.155Z,7.45
2022-09-01T05:33:50.938Z,7.20
2022-09-01T05:36:20.740Z,7.60
2022-09-01T05:38:49.215Z,8.13
2022-09-01T05:41:18.128Z,7.78
2022-09-01T05:43:47.172Z,7.82
2022-09-01T05:46:17.064Z,8.10
2022-09-01T05:48:45.302Z,7.57
2022-09-01T05:51:40.429Z,7.35
2022-09-01T05:54:04.992Z,8.15
2022-09-01T05:56:33.906Z,8.32
2022-09-01T06:01:50.694Z,8.88
2022-09-01T06:04:17.799Z,10.00
2022-09-01T06:07:06.990Z,10.15
2022-09-01T06:09:38.642Z,9.52
2022-09-01T06:12:06.715Z,8.75
2022-09-01T06:14:34.269Z,8.98
2022-09-01T06:17:01.042Z,8.85
2022-09-01T06:19:28.611Z,8.98
2022-09-01T06:21:56.902Z,8.10
2022-09-01T06:24:23.633Z,8.20
2022-09-01T06:26:50.234Z,7.30
2022-09-01T06:29:16.950Z,7.97
2022-09-01T06:31:51.770Z,7.30
2022-09-01T06:34:19.709Z,7.18
2022-09-01T06:36:49.593Z,7.32
2022-09-01T06:39:26.560Z,6.35
2022-09-01T06:41:54.801Z,6.10
2022-09-01T06:44:23.303Z,6.28
2022-09-01T06:46:51.539Z,6.68
2022-09-01T06:49:19.284Z,6.72
2022-09-01T06:51:49.151Z,5.85
2022-09-01T06:54:16.409Z,5.82
2022-09-01T06:56:44.942Z,6.07
2022-09-01T06:59:18.320Z,5.53
2022-09-01T07:01:45.956Z,5.85
2022-09-01T07:04:13.258Z,5.75
2022-09-01T07:09:47.401Z,5.40
2022-09-01T07:12:27.569Z,5.10
2022-09-01T07:17:43.280Z,5.47
2022-09-01T07:20:27.182Z,5.00
2022-09-01T07:23:04.457Z,4.80
2022-09-01T07:25:48.415Z,6.18
2022-09-01T07:28:25.313Z,5.85
2022-09-01T07:30:53.832Z,5.72
2022-09-01T07:36:27.372Z,5.18
2022-09-01T07:52:31.553Z,6.05
2022-09-01T07:54:58.298Z,5.78
2022-09-01T07:57:24.884Z,6.35
2022-09-01T07:59:53.946Z,7.05
2022-09-01T08:02:20.759Z,6.45
2022-09-01T08:04:48.249Z,6.57
2022-09-01T08:07:15.718Z,6.63
2022-09-01T08:09:44.172Z,7.25
2022-09-01T08:12:11.786Z,7.13
2022-09-01T08:14:38.493Z,6.80
2022-09-01T08:19:53.588Z,5.47
2022-09-01T08:22:24.035Z,5.30
2022-09-01T08:24:52.132Z,5.07
2022-09-01T08:27:19.076Z,5.07
2022-09-01T08:29:45.961Z,5.55
2022-09-01T08:32:13.089Z,5.20
2022-09-01T08:34:40.044Z,3.70
2022-09-01T08:37:07.012Z,3.30
2022-09-01T08:39:33.721Z,3.25
2022-09-01T08:42:32.847Z,4.00
2022-09-01T08:45:18.299Z,4.32
2022-09-01T08:48:15.256Z,3.95
2022-09-01T08:50:35.205Z,3.72
2022-09-01T08:53:12.053Z,4.45
2022-09-01T08:55:47.396Z,4.78
2022-09-01T08:58:18.036Z,4.90
2022-09-01T09:00:54.857Z,5.45
2022-09-01T09:03:43.828Z,4.15
2022-09-01T09:06:21.885Z,3.60
2022-09-01T09:08:58.149Z,2.60
2022-09-01T09:11:26.852Z,2.25
2022-09-01T09:14:25.365Z,2.03
2022-09-01T09:16:56.018Z,1.92
2022-09-01T09:19:25.313Z,1.48
2022-09-01T09:21:54.340Z,1.73
2022-09-01T09:24:52.752Z,1.60
2022-09-01T09:27:23.355Z,2.30
2022-09-01T09:29:53.491Z,2.28
2022-09-01T09:32:23.955Z,2.30
2022-09-01T09:34:54.841Z,2.38
2022-09-01T09:37:28.492Z,2.40
2022-09-01T09:40:18.376Z,2.10
2022-09-01T09:43:02.562Z,2.72
2022-09-01T09:45:34.418Z,2.47
2022-09-01T09:48:07.212Z,2.60
2022-09-01T09:50:43.981Z,2.97
2022-09-01T09:53:28.216Z,2.92
2022-09-01T09:55:59.209Z,3.30
2022-09-01T09:58:39.516Z,2.85
2022-09-01T10:01:14.022Z,2.50
2022-09-01T10:03:50.330Z,2.20
2022-09-01T10:06:37.642Z,1.98
2022-09-01T10:09:08.231Z,2.20
2022-09-01T10:11:49.036Z,1.70
2022-09-01T10:14:48.348Z,1.92
2022-09-01T10:17:15.749Z,2.33
2022-09-01T10:20:05.710Z,2.70
2022-09-01T10:22:33.817Z,2.38
2022-09-01T10:25:00.931Z,2.63
2022-09-01T10:27:32.673Z,2.03
2022-09-01T10:30:21.000Z,2.05
2022-09-01T10:32:55.373Z,1.60
2022-09-01T10:35:26.796Z,1.97
2022-09-01T10:37:55.869Z,2.10
2022-09-01T10:40:33.440Z,2.05
2022-09-01T10:43:36.294Z,1.80
2022-09-01T10:46:26.118Z,1.98
2022-09-01T10:48:57.315Z,2.17
2022-09-01T10:51:39.612Z,1.80
2022-09-01T10:57:03.946Z,1.63
2022-09-01T10:59:41.847Z,1.92
2022-09-01T11:02:25.836Z,1.45
2022-09-01T11:04:54.290Z,2.00
2022-09-01T11:07:29.686Z,2.22
2022-09-01T11:13:36.071Z,2.15
2022-09-01T11:19:30.080Z,2.17
2022-09-01T11:22:27.346Z,2.08
2022-09-01T11:25:14.415Z,2.20
2022-09-01T11:27:58.031Z,1.95
2022-09-01T11:30:36.730Z,2.00
2022-09-01T11:33:24.077Z,2.00
2022-09-01T11:36:00.404Z,2.30
2022-09-01T11:38:28.680Z,2.03
2022-09-01T11:40:57.226Z,2.30
2022-09-01T11:43:26.194Z,2.42
2022-09-01T11:45:55.921Z,2.60
2022-09-01T11:48:25.626Z,2.00
2022-09-01T11:51:01.750Z,2.20
2022-09-01T11:55:57.337Z,2.05
2022-09-01T11:58:34.999Z,2.08
2022-09-01T12:01:22.080Z,1.73
2022-09-01T12:03:51.283Z,1.80
2022-09-01T12:06:23.563Z,1.80
2022-09-01T12:08:56.096Z,1.92
2022-09-01T12:11:30.412Z,1.95
2022-09-01T12:13:59.210Z,1.77
2022-09-01T12:16:26.490Z,2.30
2022-09-01T12:18:55.253Z,1.65
2022-09-01T12:21:30.393Z,1.77
2022-09-01T12:24:21.527Z,1.52
2022-09-01T12:26:54.260Z,2.10
2022-09-01T12:29:21.546Z,1.85
2022-09-01T12:31:51.659Z,2.25
2022-09-01T12:34:39.413Z,1.98
2022-09-01T12:37:19.416Z,2.15
2022-09-01T12:39:48.943Z,1.70
2022-09-01T12:42:28.407Z,2.05
2022-09-01T12:44:57.891Z,2.10
2022-09-01T12:47:50.401Z,2.15
2022-09-01T12:50:17.263Z,2.20
2022-09-01T12:52:54.704Z,2.30
2022-09-01T12:58:11.849Z,2.38
2022-09-01T13:00:56.773Z,2.28
2022-09-01T13:03:23.885Z,3.13
2022-09-01T13:05:53.012Z,1.77
2022-09-01T13:08:22.841Z,1.90
2022-09-01T13:10:53.383Z,1.95
2022-09-01T13:13:25.990Z,1.63
2022-09-01T13:15:56.035Z,1.83
2022-09-01T13:18:24.815Z,1.92
2022-09-01T13:20:53.210Z,1.85
2022-09-01T13:23:20.817Z,1.63
2022-09-01T13:25:48.129Z,2.05
2022-09-01T13:28:16.852Z,1.90
2022-09-01T13:30:48.699Z,2.03
2022-09-01T13:33:19.247Z,2.03
2022-09-01T13:35:47.804Z,1.75
2022-09-01T13:38:16.632Z,1.55
2022-09-01T13:40:46.171Z,1.73
2022-09-01T13:43:15.696Z,1.85
2022-09-01T13:45:42.797Z,1.65
2022-09-01T13:48:16.242Z,1.80
2022-09-01T13:53:39.643Z,1.53
2022-09-01T13:56:06.599Z,1.23
2022-09-01T13:58:33.334Z,1.83
2022-09-01T14:01:00.232Z,1.70
2022-09-01T14:03:27.299Z,1.50
2022-09-01T14:05:54.925Z,1.38
2022-09-01T14:08:22.989Z,1.40
2022-09-01T14:10:52.301Z,1.20
2022-09-01T14:13:21.249Z,1.25
2022-09-01T14:15:49.416Z,1.67
2022-09-01T14:18:17.293Z,1.10
2022-09-01T14:20:47.555Z,1.20
2022-09-01T14:23:16.075Z,1.20
2022-09-01T14:25:47.053Z,1.30
2022-09-01T14:28:14.222Z,1.33
2022-09-01T14:30:43.573Z,1.20
2022-09-01T14:33:10.900Z,1.38
2022-09-01T14:35:40.358Z,1.50
2022-09-01T14:38:08.573Z,1.67
2022-09-01T14:40:38.078Z,1.20
2022-09-01T14:43:09.732Z,1.30
2022-09-01T14:45:38.090Z,1.70
2022-09-01T14:48:05.412Z,1.48
2022-09-01T14:50:34.041Z,1.40
2022-09-01T14:53:02.664Z,1.38
2022-09-01T14:55:30.871Z,1.27
2022-09-01T14:57:59.816Z,1.35
2022-09-01T15:00:27.932Z,1.38
2022-09-01T15:02:55.341Z,1.08
2022-09-01T15:05:23.082Z,1.70
2022-09-01T15:07:50.109Z,1.02
2022-09-01T15:10:25.148Z,1.80
2022-09-01T15:12:57.445Z,1.10
2022-09-01T15:15:25.607Z,1.33
2022-09-01T15:17:52.820Z,0.95
2022-09-01T15:20:35.278Z,1.77
2022-09-01T15:23:02.665Z,1.33
2022-09-01T15:25:29.551Z,1.00
2022-09-01T15:27:56.235Z,1.55
2022-09-01T15:30:23.029Z,1.60
2022-09-01T15:32:53.137Z,1.58
2022-09-01T15:35:22.200Z,1.10
2022-09-01T15:37:50.362Z,1.20
2022-09-01T15:40:18.352Z,1.50
2022-09-01T15:42:45.091Z,1.20
2022-09-01T15:45:15.373Z,1.25
2022-09-01T15:47:45.686Z,1.23
2022-09-01T15:50:21.380Z,1.08
2022-09-01T15:52:52.459Z,0.93
2022-09-01T15:55:22.250Z,1.30
2022-09-01T15:57:48.970Z,1.20
2022-09-01T16:00:17.245Z,1.23
2022-09-01T16:02:44.902Z,1.45
2022-09-01T16:05:12.455Z,1.40
2022-09-01T16:07:40.013Z,1.30
2022-09-01T16:10:12.095Z,1.25
2022-09-01T16:12:43.918Z,1.33
2022-09-01T16:15:14.302Z,1.20
2022-09-01T16:18:03.628Z,1.00
2022-09-01T16:20:37.470Z,1.40
2022-09-01T16:23:21.884Z,1.27
2022-09-01T16:25:49.409Z,1.27
2022-09-01T16:28:35.623Z,1.27
2022-09-01T16:31:10.856Z,1.42
2022-09-01T16:33:39.232Z,1.27
2022-09-01T16:36:35.375Z,1.30
2022-09-01T16:39:18.392Z,1.13
2022-09-01T16:42:15.477Z,1.55
2022-09-01T16:47:25.937Z,1.23
2022-09-01T16:50:18.670Z,1.85
2022-09-01T16:53:18.793Z,1.60
2022-09-01T16:56:01.683Z,1.20
2022-09-01T16:58:44.493Z,1.35
2022-09-01T17:01:41.604Z,1.52
2022-09-01T17:07:02.569Z,1.48
2022-09-01T17:09:38.990Z,1.40
2022-09-01T17:12:17.201Z,1.93
2022-09-01T17:14:56.279Z,1.30
2022-09-01T17:17:33.164Z,1.40
2022-09-01T17:20:01.835Z,1.75
2022-09-01T17:22:28.559Z,1.35
2022-09-01T17:27:38.884Z,1.40
2022-09-01T17:30:07.261Z,1.40
2022-09-01T17:32:50.214Z,1.42
2022-09-01T17:35:46.722Z,1.35
2022-09-01T17:38:37.254Z,1.33
2022-09-01T17:41:23.270Z,1.40
2022-09-01T17:43:49.885Z,1.58
2022-09-01T17:46:24.901Z,1.75
2022-09-01T17:49:00.916Z,1.67
2022-09-01T17:51:39.182Z,1.33
2022-09-01T17:54:22.392Z,1.33
2022-09-01T17:57:05.530Z,1.75
2022-09-01T18:00:06.866Z,1.98
2022-09-01T18:02:58.507Z,1.73
2022-09-01T18:05:26.502Z,1.77
2022-09-01T18:08:13.839Z,1.58
2022-09-01T18:10:56.422Z,1.73
2022-09-01T18:13:51.907Z,1.60
2022-09-01T18:16:23.505Z,1.87
2022-09-01T18:18:51.625Z,2.22
2022-09-01T18:21:22.061Z,1.70
2022-09-01T18:23:55.614Z,1.73
2022-09-01T18:26:29.694Z,1.88
2022-09-01T18:28:57.100Z,2.17
2022-09-01T18:31:58.840Z,1.67
2022-09-01T18:34:39.360Z,1.70
2022-09-01T18:37:27.706Z,1.63
2022-09-01T18:40:11.128Z,2.05
2022-09-01T18:42:50.090Z,1.90
2022-09-01T18:45:37.034Z,1.95
2022-09-01T18:48:29.296Z,1.95
2022-09-01T18:51:16.790Z,1.83
2022-09-01T18:53:44.778Z,1.70
2022-09-01T18:56:42.498Z,1.98
2022-09-01T18:59:24.522Z,2.15
2022-09-01T19:02:02.804Z,1.70
2022-09-01T19:04:33.628Z,1.73
2022-09-01T19:07:23.643Z,1.70
2022-09-01T19:10:06.813Z,1.83
2022-09-01T19:12:44.098Z,1.83
2022-09-01T19:15:26.289Z,1.50
2022-09-01T19:18:20.510Z,1.60
2022-09-01T19:20:52.559Z,1.50
2022-09-01T19:23:25.194Z,1.88
2022-09-01T19:26:06.014Z,1.65
2022-09-01T19:28:47.919Z,1.50
2022-09-01T19:31:23.100Z,1.95
2022-09-01T19:34:05.201Z,1.97
2022-09-01T19:36:40.478Z,1.98
2022-09-01T19:39:13.705Z,1.83
2022-09-01T19:41:48.396Z,2.10
2022-09-01T19:44:31.054Z,2.13
2022-09-01T19:47:21.759Z,1.98
2022-09-01T19:49:54.481Z,2.08
2022-09-01T19:52:38.618Z,2.00
2022-09-01T19:55:29.180Z,1.70
2022-09-01T19:58:16.499Z,2.25
2022-09-01T20:00:52.607Z,2.28
2022-09-01T20:03:29.259Z,2.10
2022-09-01T20:06:12.114Z,2.10
2022-09-01T20:08:48.109Z,2.17
2022-09-01T20:11:28.281Z,2.63
2022-09-01T20:14:17.677Z,2.42
2022-09-01T20:16:49.953Z,3.08
2022-09-01T20:19:22.998Z,1.92
2022-09-01T20:21:49.676Z,2.20
2022-09-01T20:24:34.929Z,2.78
2022-09-01T20:27:33.090Z,2.45
2022-09-01T20:30:07.249Z,3.08
2022-09-01T20:32:51.726Z,2.42
2022-09-01T20:35:29.503Z,2.35
2022-09-01T20:38:00.944Z,2.60
2022-09-01T20:40:34.029Z,2.40
2022-09-01T20:43:20.238Z,2.58
2022-09-01T20:45:46.945Z,2.65
2022-09-01T20:48:23.268Z,2.40
2022-09-01T20:50:52.324Z,2.70
2022-09-01T20:53:35.295Z,3.28
2022-09-01T20:56:11.225Z,2.70
2022-09-01T20:58:53.122Z,2.88
2022-09-01T21:01:34.193Z,2.83
2022-09-01T21:04:31.339Z,2.80
2022-09-01T21:07:19.244Z,2.72
2022-09-01T21:09:54.340Z,2.65
2022-09-01T21:12:33.616Z,3.10
2022-09-01T21:15:09.304Z,2.90
2022-09-01T21:17:44.118Z,2.85
2022-09-01T21:20:31.302Z,2.83
2022-09-01T21:23:03.799Z,2.65
2022-09-01T21:25:33.758Z,2.85
2022-09-01T21:28:04.429Z,2.78
2022-09-01T21:30:34.156Z,2.38
2022-09-01T21:33:01.650Z,2.22
2022-09-01T21:35:28.625Z,2.47
2022-09-01T21:37:55.333Z,2.88
2022-09-01T21:40:25.312Z,2.13
2022-09-01T21:42:59.236Z,2.40
2022-09-01T21:45:26.747Z,2.10
2022-09-01T21:47:53.752Z,1.90
2022-09-01T21:50:22.542Z,1.98
2022-09-01T21:52:49.648Z,1.63
2022-09-01T21:55:22.033Z,2.20
2022-09-01T21:57:50.345Z,2.10
2022-09-01T22:00:20.905Z,2.10
2022-09-01T22:02:47.942Z,2.03
2022-09-01T22:05:15.171Z,1.80
2022-09-01T22:07:45.399Z,1.63
2022-09-01T22:10:15.189Z,1.90
2022-09-01T22:12:43.503Z,2.05
2022-09-01T22:15:13.597Z,1.85
2022-09-01T22:17:40.269Z,1.90
2022-09-01T22:20:09.877Z,1.90
2022-09-01T22:22:36.624Z,1.92
2022-09-01T22:25:08.403Z,1.40
2022-09-01T22:27:35.158Z,1.90
2022-09-01T22:30:03.015Z,1.77
2022-09-01T22:32:33.056Z,1.70
2022-09-01T22:35:02.800Z,1.67
2022-09-01T22:37:29.613Z,1.80
2022-09-01T22:39:56.304Z,1.83
2022-09-01T22:42:22.999Z,1.70
2022-09-01T22:44:49.631Z,1.70
2022-09-01T22:47:16.356Z,2.25
2022-09-01T22:49:43.114Z,2.00
2022-09-01T22:52:09.762Z,2.10
2022-09-01T22:54:36.479Z,2.20
2022-09-01T22:57:03.193Z,2.10
2022-09-01T22:59:29.894Z,2.10
2022-09-01T23:01:56.697Z,1.95
2022-09-01T23:04:23.692Z,2.20
2022-09-01T23:06:52.574Z,2.08
2022-09-01T23:09:20.197Z,1.90
2022-09-01T23:11:47.834Z,2.03
2022-09-01T23:14:14.745Z,2.10
2022-09-01T23:16:41.986Z,1.70
2022-09-01T23:19:08.759Z,2.15
2022-09-01T23:21:36.883Z,2.17
2022-09-01T23:24:04.828Z,2.50
2022-09-01T23:26:32.591Z,2.50
2022-09-01T23:28:59.600Z,2.30
2022-09-01T23:31:29.877Z,2.35
2022-09-01T23:33:56.580Z,1.80
2022-09-01T23:36:26.181Z,1.67
2022-09-01T23:38:53.927Z,2.00
2022-09-01T23:41:29.327Z,2.10
2022-09-01T23:43:57.208Z,1.65
2022-09-01T23:46:30.546Z,2.20
2022-09-01T23:48:57.558Z,2.00
2022-09-01T23:51:25.462Z,2.15
2022-09-01T23:53:52.883Z,2.13
2022-09-01T23:56:24.133Z,2.00
2022-09-01T23:58:51.693Z,1.98
